Time;durP1;ratioP1;P1;durP2;ratioP2;P2;SDS_P1;SDS_P2;PMS_P1;PMS_P2;Temp;Humidity;BMP_temperature;BMP_pressure;BME280_temperature;BME280_humidity;BME280_pressure;Samples;Min_cycle;Max_cycle;Signal;HPM_P1;HPM_P2
2022/12/22 03:26:57;;;;;;;25.83;9.93;;;8.60;99.90;;;;;;6277630;22;20059;-92
2022/12/22 03:29:23;;;;;;;29.17;10.17;;;8.60;99.90;;;;;;6252593;22;20016;-92
2022/12/22 03:31:49;;;;;;;28.77;9.53;;;8.60;99.90;;;;;;6252221;22;20341;-91
2022/12/22 03:34:14;;;;;;;30.03;9.80;;;8.60;99.90;;;;;;6226610;22;20020;-92
2022/12/22 03:36:40;;;;;;;27.23;8.97;;;8.60;99.90;;;;;;6226710;22;20102;-93
2022/12/22 03:39:06;;;;;;;24.87;9.73;;;8.60;99.90;;;;;;6253143;22;20098;-93
2022/12/22 03:47:00;;;;;;;25.38;8.75;;;8.60;99.90;;;;;;6277937;22;20077;-93
2022/12/22 03:49:26;;;;;;;26.70;10.07;;;8.60;99.90;;;;;;6252272;22;20015;-93
2022/12/22 03:51:52;;;;;;;27.53;10.70;;;8.60;99.90;;;;;;6251948;22;20364;-93
2022/12/22 03:54:23;;;;;;;26.25;9.40;;;8.60;99.90;;;;;;6251936;22;20023;-93
2022/12/22 03:56:50;;;;;;;27.77;10.27;;;8.60;99.90;;;;;;6252146;22;20015;-94
2022/12/22 03:59:17;;;;;;;26.45;10.40;;;8.60;99.90;;;;;;6252123;22;20015;-92
2022/12/22 04:01:45;;;;;;;26.98;10.55;;;8.50;99.90;;;;;;6251662;22;20476;-93
2022/12/22 04:04:13;;;;;;;25.67;10.52;;;8.60;99.90;;;;;;6277330;22;20099;-95
2022/12/22 04:06:39;;;;;;;26.80;9.75;;;8.60;99.90;;;;;;6251512;22;20022;-93
2022/12/22 04:09:05;;;;;;;24.73;9.35;;;8.60;99.90;;;;;;6251853;22;20441;-91
2022/12/22 04:14:15;;;;;;;26.70;9.55;;;8.50;99.90;;;;;;6255642;22;20019;-92
2022/12/22 04:16:41;;;;;;;28.73;9.97;;;8.50;99.90;;;;;;6226387;22;20511;-94
2022/12/22 04:19:07;;;;;;;22.73;8.83;;;8.50;99.90;;;;;;6252954;22;20012;-93
2022/12/22 04:21:33;;;;;;;27.38;9.85;;;8.60;99.90;;;;;;6227055;22;20015;-94
2022/12/22 04:23:59;;;;;;;21.73;8.60;;;8.60;99.90;;;;;;6251629;22;20069;-94
2022/12/22 04:26:25;;;;;;;22.67;9.00;;;8.60;99.90;;;;;;6251439;22;20770;-93
2022/12/22 04:28:52;;;;;;;23.85;9.88;;;8.50;99.90;;;;;;6251565;22;20011;-95
2022/12/22 04:31:19;;;;;;;22.73;8.27;;;8.50;99.90;;;;;;6226315;22;20023;-92
2022/12/22 04:33:45;;;;;;;23.80;9.00;;;8.50;99.90;;;;;;6251688;22;20041;-93
2022/12/22 04:36:11;;;;;;;23.52;8.80;;;8.50;99.90;;;;;;6254663;22;20015;-94
2022/12/22 04:38:37;;;;;;;24.80;9.32;;;8.50;99.90;;;;;;6230399;22;20073;-94
2022/12/22 04:41:04;;;;;;;25.98;9.40;;;8.50;99.90;;;;;;6255094;22;20016;-93
2022/12/22 04:43:33;;;;;;;26.88;8.48;;;8.50;99.90;;;;;;6257461;22;20050;-95
2022/12/22 04:46:07;;;;;;;22.83;8.27;;;8.50;99.90;;;;;;6235706;22;20114;-93
2022/12/22 04:48:36;;;;;;;21.05;8.27;;;8.50;99.90;;;;;;6258306;22;20384;-93
2022/12/22 04:51:02;;;;;;;23.85;8.82;;;8.50;99.90;;;;;;6258314;22;20012;-93
2022/12/22 04:53:31;;;;;;;23.80;8.77;;;8.50;99.90;;;;;;6258058;22;20066;-93
2022/12/22 04:56:04;;;;;;;22.90;8.35;;;8.50;99.90;;;;;;6282652;22;20523;-94
2022/12/22 04:58:32;;;;;;;23.38;8.27;;;8.50;99.90;;;;;;6284542;22;20023;-95
2022/12/22 05:01:14;;;;;;;19.83;7.65;;;8.40;99.90;;;;;;6258181;22;20012;-94
2022/12/22 05:03:39;;;;;;;23.83;8.23;;;8.40;99.90;;;;;;6257649;22;20015;-95
2022/12/22 05:06:08;;;;;;;21.37;7.33;;;8.40;99.90;;;;;;6232097;22;20041;-92
2022/12/22 05:08:36;;;;;;;22.02;7.78;;;8.50;99.90;;;;;;6282618;22;20449;-93
2022/12/22 05:11:07;;;;;;;25.63;8.65;;;8.40;99.90;;;;;;6276755;22;20007;-92
2022/12/22 05:13:33;;;;;;;21.17;8.10;;;8.40;99.90;;;;;;6251249;22;20016;-92
2022/12/22 05:16:07;;;;;;;21.02;7.35;;;8.40;99.90;;;;;;6251209;22;20015;-92
2022/12/22 05:18:34;;;;;;;20.52;8.10;;;8.40;99.90;;;;;;6252216;22;20046;-94
2022/12/22 05:21:04;;;;;;;;;;;8.40;99.90;;;;;;6227194;22;20023;-92
2022/12/22 05:23:30;;;;;;;25.02;8.57;;;8.40;99.90;;;;;;6252125;22;20325;-92
2022/12/22 05:25:56;;;;;;;19.00;7.07;;;8.40;99.90;;;;;;6255055;22;20019;-93
2022/12/22 05:28:23;;;;;;;23.03;7.87;;;8.40;99.90;;;;;;6255733;22;20016;-92
2022/12/22 05:30:48;;;;;;;18.42;6.97;;;8.40;99.90;;;;;;6259325;22;20019;-92
2022/12/22 05:33:17;;;;;;;20.40;7.30;;;8.30;99.90;;;;;;6255915;22;20019;-96
2022/12/22 05:35:43;;;;;;;20.55;7.45;;;8.30;99.90;;;;;;6252577;22;20051;-93
2022/12/22 05:38:11;;;;;;;17.13;6.57;;;8.30;99.90;;;;;;6253331;22;20054;-93
2022/12/22 05:40:37;;;;;;;19.03;6.87;;;8.30;99.90;;;;;;6228201;22;20019;-92
2022/12/22 05:43:03;;;;;;;18.90;6.93;;;8.40;99.90;;;;;;6230412;22;20020;-91
2022/12/22 05:45:31;;;;;;;18.00;7.07;;;8.30;99.90;;;;;;6253387;22;20015;-92
2022/12/22 05:48:01;;;;;;;17.33;7.30;;;8.30;99.90;;;;;;6278325;22;20076;-93
2022/12/22 05:50:26;;;;;;;17.53;6.73;;;8.30;99.90;;;;;;6250765;22;20051;-94
2022/12/22 05:52:53;;;;;;;21.47;7.17;;;8.30;99.90;;;;;;6250934;22;20023;-96
2022/12/22 05:55:19;;;;;;;22.05;6.50;;;8.30;99.90;;;;;;6250738;22;20016;-92
2022/12/22 05:57:45;;;;;;;19.43;6.73;;;8.30;99.90;;;;;;6250710;22;20031;-92
2022/12/22 06:00:14;;;;;;;20.37;6.47;;;8.30;99.90;;;;;;6226201;22;20016;-92
2022/12/22 06:02:41;;;;;;;21.08;7.32;;;8.20;99.90;;;;;;6251537;22;20022;-91
2022/12/22 06:05:07;;;;;;;;;;;8.20;99.90;;;;;;6251181;22;20026;-91
2022/12/22 06:07:33;;;;;;;16.75;6.07;;;8.20;99.90;;;;;;6251969;22;19994;-92
2022/12/22 06:09:59;;;;;;;19.83;6.35;;;8.10;99.90;;;;;;6253210;22;20016;-92
2022/12/22 06:12:24;;;;;;;18.07;6.77;;;8.10;99.90;;;;;;6230639;22;20019;-92
2022/12/22 06:14:50;;;;;;;20.27;6.40;;;8.10;99.90;;;;;;6252211;22;20020;-92
2022/12/22 06:17:16;;;;;;;17.77;6.43;;;8.10;99.90;;;;;;6228420;22;20022;-93
2022/12/22 06:19:42;;;;;;;17.97;6.30;;;8.00;99.90;;;;;;6227543;22;20015;-93
2022/12/22 06:22:08;;;;;;;18.77;6.57;;;8.00;99.90;;;;;;6250234;22;20293;-93
2022/12/22 06:24:34;;;;;;;17.52;6.43;;;8.00;99.90;;;;;;6224744;22;20500;-93
2022/12/22 06:27:00;;;;;;;15.80;6.20;;;8.00;99.90;;;;;;6251121;22;20019;-93
2022/12/22 06:29:26;;;;;;;16.85;6.63;;;8.00;99.90;;;;;;6251199;22;20275;-93
2022/12/22 06:31:51;;;;;;;15.87;5.73;;;7.90;99.90;;;;;;6251610;22;20400;-94
2022/12/22 06:34:18;;;;;;;15.43;5.37;;;7.90;99.90;;;;;;6201717;22;20015;-94
2022/12/22 06:36:49;;;;;;;14.80;5.20;;;7.80;99.90;;;;;;6224769;22;20255;-95
2022/12/22 06:39:16;;;;;;;13.23;5.22;;;7.80;99.90;;;;;;6225577;22;20051;-96
2022/12/22 06:44:26;;;;;;;14.90;5.13;;;7.70;99.90;;;;;;6253550;22;20050;-96
2022/12/22 06:46:54;;;;;;;18.33;5.30;;;7.70;99.90;;;;;;6224483;22;20023;-96
2022/12/22 06:49:21;;;;;;;14.38;5.72;;;7.60;99.90;;;;;;6250924;22;20166;-95
2022/12/22 06:51:47;;;;;;;12.65;4.82;;;7.60;99.90;;;;;;6224898;22;20035;-95
2022/12/22 06:54:14;;;;;;;13.18;4.70;;;7.60;99.90;;;;;;6250811;22;20047;-95
2022/12/22 06:56:40;;;;;;;17.00;6.03;;;7.50;99.90;;;;;;6225547;22;20095;-95
2022/12/22 06:59:06;;;;;;;12.37;4.70;;;7.50;99.90;;;;;;6224334;22;20085;-96
2022/12/22 07:01:31;;;;;;;14.00;4.53;;;7.50;99.90;;;;;;6223861;22;20024;-93
2022/12/22 14:13:42;;;;;;;5.05;1.00;;;8.60;99.90;;;;;;6280822;22;20047;-93
2022/12/22 14:21:20;;;;;;;4.47;1.30;;;8.60;99.90;;;;;;6253197;22;20348;-93
2022/12/22 14:23:45;;;;;;;3.75;1.30;;;8.70;99.90;;;;;;6226222;22;20019;-90
2022/12/22 14:26:17;;;;;;;8.45;1.30;;;8.70;99.90;;;;;;6200988;22;20372;-87
2022/12/22 14:28:52;;;;;;;4.15;1.45;;;8.70;99.90;;;;;;6250803;22;20068;-92
2022/12/22 14:31:18;;;;;;;7.90;1.67;;;8.60;99.90;;;;;;6226019;22;20038;-95
2022/12/22 14:34:04;;;;;;;5.10;1.60;;;8.60;99.90;;;;;;6225406;22;20077;-91
2022/12/22 14:36:44;;;;;;;3.75;1.17;;;8.70;99.90;;;;;;6202548;22;20047;-89
2022/12/22 14:39:56;;;;;;;5.72;1.98;;;8.70;99.90;;;;;;6227162;22;20011;-92
2022/12/22 14:42:22;;;;;;;2.78;1.20;;;8.70;99.90;;;;;;6212901;22;20020;-92
2022/12/22 14:44:49;;;;;;;2.60;1.00;;;8.70;99.90;;;;;;6202655;22;20016;-94
2022/12/22 14:47:18;;;;;;;3.67;1.48;;;8.70;99.90;;;;;;6228818;22;20353;-90
2022/12/22 14:49:54;;;;;;;3.65;1.20;;;8.70;99.90;;;;;;6229370;22;20061;-93
2022/12/22 14:52:49;;;;;;;5.07;1.30;;;8.70;99.90;;;;;;6227556;22;20442;-95
2022/12/22 14:55:40;;;;;;;5.95;1.27;;;8.70;99.90;;;;;;6231750;22;20446;-96
2022/12/22 15:31:50;;;;;;;3.00;1.10;;;8.50;99.90;;;;;;6278867;22;20017;-92
2022/12/22 15:34:25;;;;;;;2.03;0.73;;;8.50;99.90;;;;;;6253484;22;20086;-93
2022/12/22 15:37:22;;;;;;;16.92;9.63;;;8.50;99.90;;;;;;6252537;22;20441;-92
2022/12/22 15:40:00;;;;;;;6.28;2.13;;;8.50;99.90;;;;;;6229937;22;20042;-94
2022/12/22 15:42:26;;;;;;;3.25;0.85;;;8.50;99.90;;;;;;6255279;22;20031;-90
2022/12/22 19:56:28;;;;;;;19.98;7.57;;;7.60;99.90;;;;;;6240723;22;1415738;-89
2022/12/22 19:58:56;;;;;;;20.23;7.72;;;7.60;99.90;;;;;;6250347;22;20066;-90
2022/12/22 20:01:42;;;;;;;;;;;;;;;;;;;;;
2022/12/22 20:04:11;;;;;;;23.92;8.20;;;7.50;99.90;;;;;;6276010;22;20471;-90
2022/12/22 20:06:37;;;;;;;21.15;8.13;;;7.50;99.90;;;;;;6225048;22;20069;-90
2022/12/22 20:09:03;;;;;;;20.47;7.97;;;7.50;99.90;;;;;;6225145;22;20012;-91
2022/12/22 20:11:29;;;;;;;19.70;8.70;;;7.50;99.90;;;;;;6225374;22;20012;-92
2022/12/22 20:13:55;;;;;;;20.67;7.90;;;7.50;99.90;;;;;;6225083;22;20070;-88
2022/12/22 20:16:21;;;;;;;21.65;7.93;;;7.50;99.90;;;;;;6249921;22;20503;-90
2022/12/22 20:18:47;;;;;;;18.73;8.38;;;7.50;99.90;;;;;;6249757;22;20081;-89
2022/12/22 20:21:29;;;;;;;19.60;7.93;;;7.50;99.90;;;;;;6224676;22;20015;-90
2022/12/22 20:23:58;;;;;;;19.70;7.80;;;7.50;99.90;;;;;;6275646;22;20073;-89
2022/12/22 20:26:26;;;;;;;20.70;7.97;;;7.40;99.90;;;;;;6250233;22;20008;-90
2022/12/22 20:28:52;;;;;;;22.33;8.50;;;7.40;99.90;;;;;;6249983;22;20047;-91
2022/12/22 20:31:20;;;;;;;19.15;7.32;;;7.40;99.90;;;;;;6249942;22;20053;-93
2022/12/22 20:33:47;;;;;;;20.75;7.97;;;7.30;99.90;;;;;;6250188;22;20348;-90
2022/12/22 20:36:25;;;;;;;21.10;9.15;;;7.40;99.90;;;;;;6224791;22;20050;-91
2022/12/22 20:38:52;;;;;;;20.40;7.90;;;7.40;99.90;;;;;;6251258;22;20019;-89
2022/12/22 20:41:18;;;;;;;;;;;7.30;99.90;;;;;;6252343;22;20008;-90
2022/12/22 20:43:43;;;;;;;21.80;7.95;;;7.40;99.90;;;;;;6251779;22;19915;-91
2022/12/22 20:46:16;;;;;;;21.70;7.20;;;7.30;99.90;;;;;;6251681;22;20023;-92
2022/12/22 20:48:45;;;;;;;21.73;7.75;;;7.30;99.90;;;;;;6252199;22;20019;-91
2022/12/22 20:51:17;;;;;;;18.90;7.00;;;7.40;99.90;;;;;;6251985;22;20023;-91
2022/12/22 20:53:46;;;;;;;20.33;7.85;;;7.40;99.90;;;;;;6252087;22;20092;-90
2022/12/22 20:56:28;;;;;;;19.98;7.55;;;7.30;99.90;;;;;;6251624;22;20333;-91
2022/12/22 20:58:58;;;;;;;18.40;7.25;;;7.40;99.90;;;;;;6252002;22;20352;-92
2022/12/22 21:01:24;;;;;;;17.17;6.95;;;7.40;99.90;;;;;;6227773;22;20020;-92
2022/12/22 21:03:52;;;;;;;19.05;7.03;;;7.40;99.90;;;;;;6251939;22;20445;-93
2022/12/22 21:06:24;;;;;;;19.17;7.05;;;7.30;99.90;;;;;;6252237;22;20022;-93
2022/12/22 21:08:51;;;;;;;17.30;7.05;;;7.30;99.90;;;;;;6251831;22;20094;-91
2022/12/22 21:11:17;;;;;;;19.27;7.28;;;7.30;99.90;;;;;;6251877;22;20016;-91
2022/12/22 21:13:43;;;;;;;18.30;7.60;;;7.30;99.90;;;;;;6251496;22;20012;-92
2022/12/22 21:16:14;;;;;;;18.88;7.30;;;7.30;99.90;;;;;;6251192;22;20015;-89
2022/12/22 21:18:39;;;;;;;21.50;7.45;;;7.30;99.90;;;;;;6251216;22;20080;-90
2022/12/22 21:21:06;;;;;;;17.90;7.37;;;7.30;99.90;;;;;;6251272;22;20015;-89
2022/12/22 21:23:31;;;;;;;15.18;6.10;;;7.30;99.90;;;;;;6226175;22;20015;-89
2022/12/22 21:25:57;;;;;;;16.97;6.87;;;7.20;99.90;;;;;;6225814;22;20103;-91
2022/12/22 21:28:36;;;;;;;19.67;6.63;;;7.20;99.90;;;;;;6226521;22;20068;-92
2022/12/22 21:31:03;;;;;;;15.40;6.78;;;7.20;99.90;;;;;;6251415;22;20437;-94
2022/12/22 21:33:30;;;;;;;17.23;6.18;;;7.20;99.90;;;;;;6251369;22;20012;-91
2022/12/22 21:35:58;;;;;;;17.20;7.85;;;7.20;99.90;;;;;;6251544;22;20015;-90
2022/12/22 21:38:27;;;;;;;16.85;6.75;;;7.20;99.90;;;;;;6251580;22;20016;-93
2022/12/22 21:40:53;;;;;;;17.00;6.72;;;7.20;99.90;;;;;;6251621;22;20070;-92
2022/12/22 21:43:19;;;;;;;19.80;6.95;;;7.20;99.90;;;;;;6256003;22;20023;-91
2022/12/22 21:45:48;;;;;;;16.13;6.45;;;7.20;99.90;;;;;;6257282;22;20015;-92
2022/12/22 21:48:17;;;;;;;17.38;6.85;;;7.20;99.90;;;;;;6254966;22;20047;-91
2022/12/22 21:50:44;;;;;;;17.55;7.07;;;7.20;99.90;;;;;;6261199;22;20026;-89
2022/12/22 21:53:12;;;;;;;19.63;7.10;;;7.30;99.90;;;;;;6255230;22;20062;-90
2022/12/22 21:55:39;;;;;;;17.52;7.55;;;7.20;99.90;;;;;;6251467;22;20065;-89
2022/12/22 21:58:06;;;;;;;19.77;8.30;;;7.20;99.90;;;;;;6225586;22;20090;-88
2022/12/22 22:00:33;;;;;;;17.80;7.13;;;7.30;99.90;;;;;;6225953;22;20441;-91
2022/12/22 22:03:01;;;;;;;18.42;7.60;;;7.30;99.90;;;;;;6251266;22;20012;-92
2022/12/22 22:05:32;;;;;;;16.33;7.30;;;7.30;99.90;;;;;;6225929;22;20457;-92
2022/12/22 22:07:59;;;;;;;19.30;7.60;;;7.30;99.90;;;;;;6251596;22;20007;-90
2022/12/22 22:10:28;;;;;;;18.40;6.80;;;7.20;99.90;;;;;;6251223;22;20441;-90
2022/12/22 22:12:54;;;;;;;19.00;7.80;;;7.30;99.90;;;;;;6251250;22;20016;-93
2022/12/22 22:15:21;;;;;;;15.15;6.60;;;7.20;99.90;;;;;;6250911;22;20019;-91
2022/12/22 22:17:47;;;;;;;17.15;7.22;;;7.20;99.90;;;;;;6226420;22;20099;-92
2022/12/22 22:20:19;;;;;;;20.70;7.53;;;7.20;99.90;;;;;;6251809;22;20043;-94
2022/12/22 22:22:46;;;;;;;17.13;7.47;;;7.20;99.90;;;;;;6251082;22;20016;-91
2022/12/22 22:25:13;;;;;;;;;;;7.20;99.90;;;;;;6251559;22;20016;-92
2022/12/22 22:27:39;;;;;;;18.83;7.25;;;7.20;99.90;;;;;;6251091;22;19915;-92
2022/12/22 22:30:06;;;;;;;18.85;7.70;;;7.30;99.90;;;;;;6251140;22;20019;-94
2022/12/22 22:32:32;;;;;;;17.98;8.02;;;7.20;99.90;;;;;;6250617;22;20016;-89
2022/12/22 22:34:58;;;;;;;18.87;8.10;;;7.30;99.90;;;;;;6251455;22;20110;-94
2022/12/22 22:37:23;;;;;;;17.73;7.10;;;7.30;99.90;;;;;;6225677;22;20022;-92
2022/12/22 22:39:50;;;;;;;22.83;7.97;;;7.20;99.90;;;;;;6225812;22;20015;-91
2022/12/22 22:42:16;;;;;;;21.55;8.82;;;7.30;99.90;;;;;;6250970;22;20341;-90
2022/12/22 22:44:41;;;;;;;20.33;8.17;;;7.20;99.90;;;;;;6250892;22;20015;-94
2022/12/22 22:47:07;;;;;;;22.83;8.13;;;7.30;99.90;;;;;;6251113;22;20091;-92
2022/12/22 22:49:34;;;;;;;19.73;8.23;;;7.30;99.90;;;;;;6226273;22;20019;-91
2022/12/22 22:51:59;;;;;;;17.20;7.70;;;7.30;99.90;;;;;;6251009;22;20030;-93
2022/12/22 22:54:25;;;;;;;19.77;8.53;;;7.30;99.90;;;;;;6250899;22;20015;-91
2022/12/22 22:56:52;;;;;;;22.37;8.10;;;7.30;99.90;;;;;;6225654;22;20016;-92
2022/12/22 22:59:17;;;;;;;24.23;8.82;;;7.30;99.90;;;;;;6226159;22;20016;-91
2022/12/22 23:01:43;;;;;;;21.23;7.50;;;7.30;99.90;;;;;;6250777;22;20022;-93
2022/12/22 23:04:09;;;;;;;19.17;7.87;;;7.30;99.90;;;;;;6250983;22;20086;-92
2022/12/22 23:06:35;;;;;;;22.93;8.73;;;7.30;99.90;;;;;;6225695;22;20526;-93
2022/12/22 23:09:01;;;;;;;22.83;9.37;;;7.30;99.90;;;;;;6251190;22;20018;-91
2022/12/22 23:11:26;;;;;;;22.07;8.90;;;7.40;99.90;;;;;;6250621;22;20430;-92
2022/12/22 23:13:53;;;;;;;16.23;7.43;;;7.40;99.90;;;;;;6225802;22;20575;-93
2022/12/22 23:16:20;;;;;;;17.77;7.50;;;7.40;99.90;;;;;;6226102;22;20008;-91
2022/12/22 23:18:46;;;;;;;;;;;7.40;99.90;;;;;;6251520;22;20020;-93
2022/12/22 23:21:14;;;;;;;23.05;8.68;;;7.40;99.90;;;;;;6251112;22;19922;-92
2022/12/22 23:23:42;;;;;;;19.27;7.57;;;7.40;99.90;;;;;;6250661;22;20020;-93
2022/12/22 23:26:08;;;;;;;25.00;8.77;;;7.40;99.90;;;;;;6225550;22;20022;-94
2022/12/22 23:28:34;;;;;;;22.57;8.63;;;7.40;99.90;;;;;;6250610;22;20015;-94
2022/12/22 23:31:08;;;;;;;22.23;8.67;;;7.40;99.90;;;;;;6249912;22;20020;-93
2022/12/22 23:33:43;;;;;;;23.92;9.07;;;7.40;99.90;;;;;;6250741;22;20464;-93
2022/12/22 23:36:12;;;;;;;20.75;8.13;;;7.40;99.90;;;;;;6250950;22;20012;-92
2022/12/22 23:38:50;;;;;;;;;;;;;;;;;;;;;
2022/12/22 23:41:34;;;;;;;21.35;7.75;;;7.30;99.90;;;;;;6275926;22;20022;-93
2022/12/22 23:44:05;;;;;;;19.17;7.68;;;7.30;99.90;;;;;;6250743;22;20408;-93
2022/12/22 23:46:34;;;;;;;23.27;8.18;;;7.40;99.90;;;;;;6226195;22;20055;-93
2022/12/22 23:49:05;;;;;;;22.33;8.35;;;7.40;99.90;;;;;;6251169;22;20016;-92
2022/12/22 23:51:34;;;;;;;20.52;7.53;;;7.30;99.90;;;;;;6250519;22;20015;-93
2022/12/22 23:54:00;;;;;;;20.17;8.25;;;7.30;99.90;;;;;;6225135;22;20020;-92
2022/12/22 23:56:29;;;;;;;19.13;7.85;;;7.30;99.90;;;;;;6250347;22;20016;-91
2022/12/22 23:58:55;;;;;;;20.00;7.93;;;7.30;99.90;;;;;;6250787;22;20058;-92
